sensor_id;sensor_type;location;lat;lon;timestamp;temperature;humidity
12847;DHT22;6492;48.128;8.320;2023-11-21T00:00:04;4.10;69.30
12847;DHT22;6492;48.128;8.320;2023-11-21T00:04:11;4.10;69.30
12847;DHT22;6492;48.128;8.320;2023-11-21T00:08:12;4.00;69.30
12847;DHT22;6492;48.128;8.320;2023-11-21T00:12:15;4.10;69.80
12847;DHT22;6492;48.128;8.320;2023-11-21T00:16:18;4.10;69.90
12847;DHT22;6492;48.128;8.320;2023-11-21T00:20:20;4.00;69.90
12847;DHT22;6492;48.128;8.320;2023-11-21T00:24:22;4.00;70.00
12847;DHT22;6492;48.128;8.320;2023-11-21T00:28:37;4.00;69.90
12847;DHT22;6492;48.128;8.320;2023-11-21T00:32:39;4.00;69.90
12847;DHT22;6492;48.128;8.320;2023-11-21T00:36:41;3.90;69.80
12847;DHT22;6492;48.128;8.320;2023-11-21T00:40:42;3.90;70.00
12847;DHT22;6492;48.128;8.320;2023-11-21T00:44:45;3.90;69.70
12847;DHT22;6492;48.128;8.320;2023-11-21T00:48:47;3.90;70.40
12847;DHT22;6492;48.128;8.320;2023-11-21T00:52:49;3.90;69.80
12847;DHT22;6492;48.128;8.320;2023-11-21T00:56:52;3.90;69.90
12847;DHT22;6492;48.128;8.320;2023-11-21T01:00:55;3.80;69.90
12847;DHT22;6492;48.128;8.320;2023-11-21T01:04:56;3.80;70.00
12847;DHT22;6492;48.128;8.320;2023-11-21T01:08:58;3.80;70.20
12847;DHT22;6492;48.128;8.320;2023-11-21T01:13:00;3.80;70.50
12847;DHT22;6492;48.128;8.320;2023-11-21T01:17:04;3.90;70.70
12847;DHT22;6492;48.128;8.320;2023-11-21T01:21:06;3.80;70.70
12847;DHT22;6492;48.128;8.320;2023-11-21T01:25:09;3.80;70.70
12847;DHT22;6492;48.128;8.320;2023-11-21T01:29:11;3.80;70.80
12847;DHT22;6492;48.128;8.320;2023-11-21T01:33:14;3.80;71.00
12847;DHT22;6492;48.128;8.320;2023-11-21T01:37:16;3.80;71.10
12847;DHT22;6492;48.128;8.320;2023-11-21T01:41:18;3.90;71.30
12847;DHT22;6492;48.128;8.320;2023-11-21T01:45:20;3.90;71.50
12847;DHT22;6492;48.128;8.320;2023-11-21T01:49:24;3.90;71.60
12847;DHT22;6492;48.128;8.320;2023-11-21T01:53:25;4.00;71.80
12847;DHT22;6492;48.128;8.320;2023-11-21T01:57:28;3.90;71.90
12847;DHT22;6492;48.128;8.320;2023-11-21T02:01:30;3.90;71.90
12847;DHT22;6492;48.128;8.320;2023-11-21T02:05:33;4.00;72.00
12847;DHT22;6492;48.128;8.320;2023-11-21T02:09:35;4.00;72.10
12847;DHT22;6492;48.128;8.320;2023-11-21T02:13:38;4.00;72.20
12847;DHT22;6492;48.128;8.320;2023-11-21T02:17:43;4.00;72.20
12847;DHT22;6492;48.128;8.320;2023-11-21T02:21:47;4.00;72.30
12847;DHT22;6492;48.128;8.320;2023-11-21T02:25:51;4.00;72.30
12847;DHT22;6492;48.128;8.320;2023-11-21T02:29:53;4.00;72.30
12847;DHT22;6492;48.128;8.320;2023-11-21T02:33:56;3.90;72.30
12847;DHT22;6492;48.128;8.320;2023-11-21T02:37:57;4.00;72.40
12847;DHT22;6492;48.128;8.320;2023-11-21T02:42:01;4.00;72.60
12847;DHT22;6492;48.128;8.320;2023-11-21T02:46:05;4.10;72.80
12847;DHT22;6492;48.128;8.320;2023-11-21T02:50:08;4.10;72.80
12847;DHT22;6492;48.128;8.320;2023-11-21T02:54:11;4.00;72.80
12847;DHT22;6492;48.128;8.320;2023-11-21T02:58:14;4.00;72.70
12847;DHT22;6492;48.128;8.320;2023-11-21T03:02:16;4.00;72.80
12847;DHT22;6492;48.128;8.320;2023-11-21T03:06:18;4.00;72.80
12847;DHT22;6492;48.128;8.320;2023-11-21T03:10:20;3.90;72.70
12847;DHT22;6492;48.128;8.320;2023-11-21T03:14:23;3.80;72.60
12847;DHT22;6492;48.128;8.320;2023-11-21T03:18:25;3.80;72.80
12847;DHT22;6492;48.128;8.320;2023-11-21T03:22:26;3.70;72.70
12847;DHT22;6492;48.128;8.320;2023-11-21T03:26:28;3.70;72.60
12847;DHT22;6492;48.128;8.320;2023-11-21T03:30:32;3.70;72.60
12847;DHT22;6492;48.128;8.320;2023-11-21T03:34:34;3.70;72.50
12847;DHT22;6492;48.128;8.320;2023-11-21T03:38:36;3.60;72.20
12847;DHT22;6492;48.128;8.320;2023-11-21T03:42:38;3.50;72.10
12847;DHT22;6492;48.128;8.320;2023-11-21T03:51:11;3.50;71.70
12847;DHT22;6492;48.128;8.320;2023-11-21T03:55:13;3.40;71.60
12847;DHT22;6492;48.128;8.320;2023-11-21T03:59:15;3.40;72.00
12847;DHT22;6492;48.128;8.320;2023-11-21T04:03:17;3.40;72.20
12847;DHT22;6492;48.128;8.320;2023-11-21T04:07:36;3.50;72.40
12847;DHT22;6492;48.128;8.320;2023-11-21T04:11:42;3.40;72.10
12847;DHT22;6492;48.128;8.320;2023-11-21T04:15:46;3.30;71.80
12847;DHT22;6492;48.128;8.320;2023-11-21T04:19:47;3.20;71.70
12847;DHT22;6492;48.128;8.320;2023-11-21T04:23:50;3.20;72.00
12847;DHT22;6492;48.128;8.320;2023-11-21T04:27:52;3.20;72.30
12847;DHT22;6492;48.128;8.320;2023-11-21T04:31:54;3.10;72.10
12847;DHT22;6492;48.128;8.320;2023-11-21T04:35:56;3.00;71.80
12847;DHT22;6492;48.128;8.320;2023-11-21T04:39:59;2.90;71.90
12847;DHT22;6492;48.128;8.320;2023-11-21T04:44:01;2.80;71.70
12847;DHT22;6492;48.128;8.320;2023-11-21T04:48:03;2.70;72.10
12847;DHT22;6492;48.128;8.320;2023-11-21T04:52:06;2.80;72.10
12847;DHT22;6492;48.128;8.320;2023-11-21T04:56:11;2.80;72.40
12847;DHT22;6492;48.128;8.320;2023-11-21T05:00:13;2.90;72.70
12847;DHT22;6492;48.128;8.320;2023-11-21T05:04:19;2.90;72.80
12847;DHT22;6492;48.128;8.320;2023-11-21T05:08:22;3.00;73.10
12847;DHT22;6492;48.128;8.320;2023-11-21T05:12:26;2.90;73.00
12847;DHT22;6492;48.128;8.320;2023-11-21T05:16:28;2.90;73.00
12847;DHT22;6492;48.128;8.320;2023-11-21T05:20:30;2.90;73.10
12847;DHT22;6492;48.128;8.320;2023-11-21T05:24:31;2.90;73.10
12847;DHT22;6492;48.128;8.320;2023-11-21T05:28:34;2.90;73.20
12847;DHT22;6492;48.128;8.320;2023-11-21T05:32:37;2.80;73.00
12847;DHT22;6492;48.128;8.320;2023-11-21T05:36:48;2.80;73.10
12847;DHT22;6492;48.128;8.320;2023-11-21T05:41:05;2.80;73.10
12847;DHT22;6492;48.128;8.320;2023-11-21T05:45:09;2.80;73.20
12847;DHT22;6492;48.128;8.320;2023-11-21T05:49:11;2.90;73.40
12847;DHT22;6492;48.128;8.320;2023-11-21T05:53:13;2.90;73.40
12847;DHT22;6492;48.128;8.320;2023-11-21T05:57:16;2.90;73.50
12847;DHT22;6492;48.128;8.320;2023-11-21T06:01:19;2.90;73.50
12847;DHT22;6492;48.128;8.320;2023-11-21T06:05:22;3.00;73.60
12847;DHT22;6492;48.128;8.320;2023-11-21T06:09:37;3.10;73.70
12847;DHT22;6492;48.128;8.320;2023-11-21T06:13:38;3.20;73.70
12847;DHT22;6492;48.128;8.320;2023-11-21T06:17:42;3.30;73.90
12847;DHT22;6492;48.128;8.320;2023-11-21T06:21:48;3.40;73.90
12847;DHT22;6492;48.128;8.320;2023-11-21T06:25:51;3.40;73.90
12847;DHT22;6492;48.128;8.320;2023-11-21T06:29:53;3.50;74.00
12847;DHT22;6492;48.128;8.320;2023-11-21T06:33:56;3.50;74.00
12847;DHT22;6492;48.128;8.320;2023-11-21T06:38:00;3.60;74.10
12847;DHT22;6492;48.128;8.320;2023-11-21T06:42:02;3.60;74.10
12847;DHT22;6492;48.128;8.320;2023-11-21T06:46:05;3.70;74.20
12847;DHT22;6492;48.128;8.320;2023-11-21T06:50:09;3.70;74.20
12847;DHT22;6492;48.128;8.320;2023-11-21T06:54:10;3.70;74.30
12847;DHT22;6492;48.128;8.320;2023-11-21T06:58:12;3.80;74.30
12847;DHT22;6492;48.128;8.320;2023-11-21T07:02:15;3.80;74.40
12847;DHT22;6492;48.128;8.320;2023-11-21T07:06:20;3.80;74.50
12847;DHT22;6492;48.128;8.320;2023-11-21T07:10:22;3.80;74.50
12847;DHT22;6492;48.128;8.320;2023-11-21T07:14:23;3.80;74.50
12847;DHT22;6492;48.128;8.320;2023-11-21T07:18:25;3.70;74.50
12847;DHT22;6492;48.128;8.320;2023-11-21T07:22:29;3.80;74.50
12847;DHT22;6492;48.128;8.320;2023-11-21T07:26:30;3.70;74.60
12847;DHT22;6492;48.128;8.320;2023-11-21T07:30:32;3.70;74.60
12847;DHT22;6492;48.128;8.320;2023-11-21T07:34:34;3.70;74.50
12847;DHT22;6492;48.128;8.320;2023-11-21T07:38:37;3.70;74.50
12847;DHT22;6492;48.128;8.320;2023-11-21T07:42:39;3.70;74.50
12847;DHT22;6492;48.128;8.320;2023-11-21T07:46:43;3.70;74.50
12847;DHT22;6492;48.128;8.320;2023-11-21T07:50:44;3.70;74.50
12847;DHT22;6492;48.128;8.320;2023-11-21T07:55:03;3.80;74.50
12847;DHT22;6492;48.128;8.320;2023-11-21T07:59:06;3.80;74.50
12847;DHT22;6492;48.128;8.320;2023-11-21T08:03:08;3.80;74.70
12847;DHT22;6492;48.128;8.320;2023-11-21T08:07:09;3.80;74.50
12847;DHT22;6492;48.128;8.320;2023-11-21T08:11:12;3.90;74.70
12847;DHT22;6492;48.128;8.320;2023-11-21T08:15:14;4.00;74.50
12847;DHT22;6492;48.128;8.320;2023-11-21T08:19:16;4.00;74.40
12847;DHT22;6492;48.128;8.320;2023-11-21T08:23:19;4.00;74.30
12847;DHT22;6492;48.128;8.320;2023-11-21T08:27:22;4.00;74.20
12847;DHT22;6492;48.128;8.320;2023-11-21T08:31:34;4.00;74.00
12847;DHT22;6492;48.128;8.320;2023-11-21T08:35:43;4.00;73.90
12847;DHT22;6492;48.128;8.320;2023-11-21T08:39:47;4.00;73.30
12847;DHT22;6492;48.128;8.320;2023-11-21T08:43:51;4.10;72.90
12847;DHT22;6492;48.128;8.320;2023-11-21T08:47:54;4.10;72.50
12847;DHT22;6492;48.128;8.320;2023-11-21T08:51:56;4.10;72.00
12847;DHT22;6492;48.128;8.320;2023-11-21T08:56:05;4.10;71.80
12847;DHT22;6492;48.128;8.320;2023-11-21T09:00:10;4.20;71.60
12847;DHT22;6492;48.128;8.320;2023-11-21T09:04:12;4.30;71.20
12847;DHT22;6492;48.128;8.320;2023-11-21T09:08:14;4.30;71.20
12847;DHT22;6492;48.128;8.320;2023-11-21T09:12:17;4.40;71.20
12847;DHT22;6492;48.128;8.320;2023-11-21T09:16:21;4.60;71.30
12847;DHT22;6492;48.128;8.320;2023-11-21T09:20:22;4.70;71.30
12847;DHT22;6492;48.128;8.320;2023-11-21T09:24:24;4.80;70.90
12847;DHT22;6492;48.128;8.320;2023-11-21T09:28:26;4.90;69.00
12847;DHT22;6492;48.128;8.320;2023-11-21T09:32:30;4.90;66.20
12847;DHT22;6492;48.128;8.320;2023-11-21T09:36:46;4.90;66.10
12847;DHT22;6492;48.128;8.320;2023-11-21T09:41:17;5.00;65.20
12847;DHT22;6492;48.128;8.320;2023-11-21T09:45:34;5.00;64.90
12847;DHT22;6492;48.128;8.320;2023-11-21T09:49:47;5.00;64.00
12847;DHT22;6492;48.128;8.320;2023-11-21T09:53:50;5.00;63.70
12847;DHT22;6492;48.128;8.320;2023-11-21T09:57:54;5.00;62.90
12847;DHT22;6492;48.128;8.320;2023-11-21T10:01:58;5.00;62.20
12847;DHT22;6492;48.128;8.320;2023-11-21T10:06:02;5.00;62.50
12847;DHT22;6492;48.128;8.320;2023-11-21T10:10:07;5.10;62.60
12847;DHT22;6492;48.128;8.320;2023-11-21T10:14:11;5.10;62.10
12847;DHT22;6492;48.128;8.320;2023-11-21T10:18:15;5.20;61.80
12847;DHT22;6492;48.128;8.320;2023-11-21T10:22:18;5.30;61.10
12847;DHT22;6492;48.128;8.320;2023-11-21T10:26:22;5.30;60.00
12847;DHT22;6492;48.128;8.320;2023-11-21T10:30:28;5.20;58.90
12847;DHT22;6492;48.128;8.320;2023-11-21T10:34:29;5.20;59.30
12847;DHT22;6492;48.128;8.320;2023-11-21T10:38:42;5.30;59.20
12847;DHT22;6492;48.128;8.320;2023-11-21T10:42:46;5.30;59.10
12847;DHT22;6492;48.128;8.320;2023-11-21T10:46:48;5.20;58.20
12847;DHT22;6492;48.128;8.320;2023-11-21T10:50:51;5.20;58.70
12847;DHT22;6492;48.128;8.320;2023-11-21T10:54:54;5.30;59.80
12847;DHT22;6492;48.128;8.320;2023-11-21T10:58:56;5.40;59.80
12847;DHT22;6492;48.128;8.320;2023-11-21T11:02:59;5.50;59.50
12847;DHT22;6492;48.128;8.320;2023-11-21T11:07:02;5.60;59.50
12847;DHT22;6492;48.128;8.320;2023-11-21T11:11:06;5.60;59.50
12847;DHT22;6492;48.128;8.320;2023-11-21T11:15:10;5.70;59.50
12847;DHT22;6492;48.128;8.320;2023-11-21T11:19:12;5.70;59.10
12847;DHT22;6492;48.128;8.320;2023-11-21T11:23:30;5.70;58.20
12847;DHT22;6492;48.128;8.320;2023-11-21T11:27:44;5.60;57.70
12847;DHT22;6492;48.128;8.320;2023-11-21T11:31:55;5.70;58.20
12847;DHT22;6492;48.128;8.320;2023-11-21T11:36:05;5.80;56.20
12847;DHT22;6492;48.128;8.320;2023-11-21T11:40:11;5.80;56.40
12847;DHT22;6492;48.128;8.320;2023-11-21T11:44:51;5.90;56.10
12847;DHT22;6492;48.128;8.320;2023-11-21T11:49:02;5.90;54.80
12847;DHT22;6492;48.128;8.320;2023-11-21T11:53:15;6.00;54.70
12847;DHT22;6492;48.128;8.320;2023-11-21T11:57:30;6.20;53.30
12847;DHT22;6492;48.128;8.320;2023-11-21T12:01:33;6.20;50.20
12847;DHT22;6492;48.128;8.320;2023-11-21T12:05:36;6.20;49.30
12847;DHT22;6492;48.128;8.320;2023-11-21T12:09:41;6.20;49.40
12847;DHT22;6492;48.128;8.320;2023-11-21T12:13:42;6.10;50.00
12847;DHT22;6492;48.128;8.320;2023-11-21T12:17:47;6.10;50.20
12847;DHT22;6492;48.128;8.320;2023-11-21T12:21:49;6.10;50.20
12847;DHT22;6492;48.128;8.320;2023-11-21T12:25:52;6.10;51.00
12847;DHT22;6492;48.128;8.320;2023-11-21T12:29:54;6.10;51.20
12847;DHT22;6492;48.128;8.320;2023-11-21T12:33:57;6.10;51.50
12847;DHT22;6492;48.128;8.320;2023-11-21T12:38:00;6.10;51.90
12847;DHT22;6492;48.128;8.320;2023-11-21T12:42:04;6.10;51.70
12847;DHT22;6492;48.128;8.320;2023-11-21T12:46:07;6.00;50.80
12847;DHT22;6492;48.128;8.320;2023-11-21T12:50:11;5.80;51.00
12847;DHT22;6492;48.128;8.320;2023-11-21T12:54:14;5.80;51.90
12847;DHT22;6492;48.128;8.320;2023-11-21T12:58:19;5.80;52.60
12847;DHT22;6492;48.128;8.320;2023-11-21T13:02:26;5.90;53.30
12847;DHT22;6492;48.128;8.320;2023-11-21T13:06:29;6.00;53.60
12847;DHT22;6492;48.128;8.320;2023-11-21T13:10:40;6.10;53.00
12847;DHT22;6492;48.128;8.320;2023-11-21T13:14:45;6.20;52.30
12847;DHT22;6492;48.128;8.320;2023-11-21T13:18:47;6.30;52.00
12847;DHT22;6492;48.128;8.320;2023-11-21T13:22:52;6.30;49.40
12847;DHT22;6492;48.128;8.320;2023-11-21T13:26:57;6.30;49.20
12847;DHT22;6492;48.128;8.320;2023-11-21T13:31:08;6.30;48.50
12847;DHT22;6492;48.128;8.320;2023-11-21T13:35:21;6.20;47.80
12847;DHT22;6492;48.128;8.320;2023-11-21T13:39:32;6.10;49.70
12847;DHT22;6492;48.128;8.320;2023-11-21T13:43:34;6.00;50.40
12847;DHT22;6492;48.128;8.320;2023-11-21T13:47:37;5.90;50.70
12847;DHT22;6492;48.128;8.320;2023-11-21T13:51:40;5.70;50.70
12847;DHT22;6492;48.128;8.320;2023-11-21T13:55:46;5.70;51.30
12847;DHT22;6492;48.128;8.320;2023-11-21T13:59:48;5.60;51.10
12847;DHT22;6492;48.128;8.320;2023-11-21T14:03:50;5.70;51.30
12847;DHT22;6492;48.128;8.320;2023-11-21T14:07:57;5.60;51.10
12847;DHT22;6492;48.128;8.320;2023-11-21T14:12:06;5.60;50.80
12847;DHT22;6492;48.128;8.320;2023-11-21T14:16:13;5.50;51.50
12847;DHT22;6492;48.128;8.320;2023-11-21T14:20:14;5.40;51.60
12847;DHT22;6492;48.128;8.320;2023-11-21T14:24:18;5.30;52.00
12847;DHT22;6492;48.128;8.320;2023-11-21T14:28:21;5.40;53.00
12847;DHT22;6492;48.128;8.320;2023-11-21T14:32:23;5.40;53.80
12847;DHT22;6492;48.128;8.320;2023-11-21T14:36:26;5.40;53.50
12847;DHT22;6492;48.128;8.320;2023-11-21T14:40:28;5.40;53.40
12847;DHT22;6492;48.128;8.320;2023-11-21T14:44:35;5.40;53.80
12847;DHT22;6492;48.128;8.320;2023-11-21T14:48:41;5.50;54.40
12847;DHT22;6492;48.128;8.320;2023-11-21T14:52:43;5.40;54.40
12847;DHT22;6492;48.128;8.320;2023-11-21T14:56:56;5.40;54.10
12847;DHT22;6492;48.128;8.320;2023-11-21T15:00:59;5.40;54.40
12847;DHT22;6492;48.128;8.320;2023-11-21T15:05:01;5.30;54.50
12847;DHT22;6492;48.128;8.320;2023-11-21T15:09:03;5.30;55.00
12847;DHT22;6492;48.128;8.320;2023-11-21T15:13:34;5.20;55.10
12847;DHT22;6492;48.128;8.320;2023-11-21T15:17:37;5.20;55.80
12847;DHT22;6492;48.128;8.320;2023-11-21T15:21:43;5.10;55.90
12847;DHT22;6492;48.128;8.320;2023-11-21T15:25:53;5.00;56.40
12847;DHT22;6492;48.128;8.320;2023-11-21T15:29:55;5.00;57.00
12847;DHT22;6492;48.128;8.320;2023-11-21T15:33:58;4.90;57.80
12847;DHT22;6492;48.128;8.320;2023-11-21T15:38:00;4.90;57.90
12847;DHT22;6492;48.128;8.320;2023-11-21T15:42:02;4.80;58.10
12847;DHT22;6492;48.128;8.320;2023-11-21T15:46:05;4.80;58.40
12847;DHT22;6492;48.128;8.320;2023-11-21T15:50:10;4.80;59.50
12847;DHT22;6492;48.128;8.320;2023-11-21T15:54:26;4.70;59.40
12847;DHT22;6492;48.128;8.320;2023-11-21T15:58:34;4.70;60.40
12847;DHT22;6492;48.128;8.320;2023-11-21T16:02:37;4.70;60.70
12847;DHT22;6492;48.128;8.320;2023-11-21T16:06:40;4.60;61.20
12847;DHT22;6492;48.128;8.320;2023-11-21T16:10:42;4.60;61.60
12847;DHT22;6492;48.128;8.320;2023-11-21T16:14:50;4.60;62.00
12847;DHT22;6492;48.128;8.320;2023-11-21T16:19:02;4.60;62.30
12847;DHT22;6492;48.128;8.320;2023-11-21T16:23:05;4.60;62.80
12847;DHT22;6492;48.128;8.320;2023-11-21T16:27:08;4.60;63.00
12847;DHT22;6492;48.128;8.320;2023-11-21T16:31:23;4.60;63.10
12847;DHT22;6492;48.128;8.320;2023-11-21T16:35:25;4.60;63.50
12847;DHT22;6492;48.128;8.320;2023-11-21T16:39:28;4.60;63.40
12847;DHT22;6492;48.128;8.320;2023-11-21T16:43:48;4.50;63.60
12847;DHT22;6492;48.128;8.320;2023-11-21T16:47:49;4.40;63.10
12847;DHT22;6492;48.128;8.320;2023-11-21T16:51:59;4.30;63.00
12847;DHT22;6492;48.128;8.320;2023-11-21T16:56:12;4.30;63.00
12847;DHT22;6492;48.128;8.320;2023-11-21T17:00:14;4.20;63.30
12847;DHT22;6492;48.128;8.320;2023-11-21T17:04:18;4.20;63.60
12847;DHT22;6492;48.128;8.320;2023-11-21T17:08:20;4.20;63.90
12847;DHT22;6492;48.128;8.320;2023-11-21T17:12:24;4.20;64.50
12847;DHT22;6492;48.128;8.320;2023-11-21T17:16:26;4.20;65.00
12847;DHT22;6492;48.128;8.320;2023-11-21T17:20:28;4.30;65.70
12847;DHT22;6492;48.128;8.320;2023-11-21T17:24:30;4.30;65.80
12847;DHT22;6492;48.128;8.320;2023-11-21T17:28:34;4.30;66.10
12847;DHT22;6492;48.128;8.320;2023-11-21T17:32:36;4.30;66.50
12847;DHT22;6492;48.128;8.320;2023-11-21T17:36:40;4.30;66.70
12847;DHT22;6492;48.128;8.320;2023-11-21T17:40:42;4.20;66.60
12847;DHT22;6492;48.128;8.320;2023-11-21T17:44:46;4.20;66.20
12847;DHT22;6492;48.128;8.320;2023-11-21T17:48:48;4.10;65.90
12847;DHT22;6492;48.128;8.320;2023-11-21T17:52:52;4.00;65.70
12847;DHT22;6492;48.128;8.320;2023-11-21T17:56:55;3.90;65.70
12847;DHT22;6492;48.128;8.320;2023-11-21T18:00:58;3.90;65.90
12847;DHT22;6492;48.128;8.320;2023-11-21T18:05:00;3.80;66.00
12847;DHT22;6492;48.128;8.320;2023-11-21T18:09:02;3.80;66.20
12847;DHT22;6492;48.128;8.320;2023-11-21T18:13:04;3.70;66.30
12847;DHT22;6492;48.128;8.320;2023-11-21T18:17:08;3.70;66.50
12847;DHT22;6492;48.128;8.320;2023-11-21T18:21:10;3.70;66.80
12847;DHT22;6492;48.128;8.320;2023-11-21T18:25:12;3.70;67.20
12847;DHT22;6492;48.128;8.320;2023-11-21T18:29:13;3.70;67.20
12847;DHT22;6492;48.128;8.320;2023-11-21T18:33:19;3.70;67.50
12847;DHT22;6492;48.128;8.320;2023-11-21T18:37:21;3.70;67.80
12847;DHT22;6492;48.128;8.320;2023-11-21T18:41:23;3.70;67.90
12847;DHT22;6492;48.128;8.320;2023-11-21T18:45:26;3.70;68.00
12847;DHT22;6492;48.128;8.320;2023-11-21T18:49:38;3.70;68.20
12847;DHT22;6492;48.128;8.320;2023-11-21T18:53:46;3.70;68.50
12847;DHT22;6492;48.128;8.320;2023-11-21T18:57:49;3.70;68.50
12847;DHT22;6492;48.128;8.320;2023-11-21T19:01:59;3.70;68.80
12847;DHT22;6492;48.128;8.320;2023-11-21T19:06:03;3.70;69.00
12847;DHT22;6492;48.128;8.320;2023-11-21T19:10:06;3.70;69.00
12847;DHT22;6492;48.128;8.320;2023-11-21T19:14:10;3.70;69.10
12847;DHT22;6492;48.128;8.320;2023-11-21T19:18:16;3.70;69.20
12847;DHT22;6492;48.128;8.320;2023-11-21T19:22:35;3.70;69.40
12847;DHT22;6492;48.128;8.320;2023-11-21T19:26:39;3.70;69.90
12847;DHT22;6492;48.128;8.320;2023-11-21T19:30:42;3.70;69.70
12847;DHT22;6492;48.128;8.320;2023-11-21T19:34:59;3.70;69.80
12847;DHT22;6492;48.128;8.320;2023-11-21T19:39:02;3.70;69.60
12847;DHT22;6492;48.128;8.320;2023-11-21T19:43:04;3.60;69.50
12847;DHT22;6492;48.128;8.320;2023-11-21T19:47:39;3.60;69.60
12847;DHT22;6492;48.128;8.320;2023-11-21T19:51:47;3.60;69.80
12847;DHT22;6492;48.128;8.320;2023-11-21T19:55:51;3.70;70.10
12847;DHT22;6492;48.128;8.320;2023-11-21T19:59:55;3.70;70.20
12847;DHT22;6492;48.128;8.320;2023-11-21T20:03:57;3.70;70.40
12847;DHT22;6492;48.128;8.320;2023-11-21T20:08:11;3.70;70.40
12847;DHT22;6492;48.128;8.320;2023-11-21T20:12:14;3.70;70.40
12847;DHT22;6492;48.128;8.320;2023-11-21T20:16:30;3.70;70.60
12847;DHT22;6492;48.128;8.320;2023-11-21T20:20:49;3.70;70.80
12847;DHT22;6492;48.128;8.320;2023-11-21T20:24:51;3.70;70.70
12847;DHT22;6492;48.128;8.320;2023-11-21T20:29:14;3.70;70.70
12847;DHT22;6492;48.128;8.320;2023-11-21T20:33:17;3.70;70.80
12847;DHT22;6492;48.128;8.320;2023-11-21T20:37:19;3.60;70.70
12847;DHT22;6492;48.128;8.320;2023-11-21T20:41:29;3.70;71.00
12847;DHT22;6492;48.128;8.320;2023-11-21T20:45:50;3.70;71.20
12847;DHT22;6492;48.128;8.320;2023-11-21T20:49:52;3.70;71.20
12847;DHT22;6492;48.128;8.320;2023-11-21T20:54:06;3.80;71.20
12847;DHT22;6492;48.128;8.320;2023-11-21T20:58:08;3.80;70.90
12847;DHT22;6492;48.128;8.320;2023-11-21T21:02:11;3.80;71.00
12847;DHT22;6492;48.128;8.320;2023-11-21T21:06:13;3.80;70.70
12847;DHT22;6492;48.128;8.320;2023-11-21T21:10:38;3.80;70.50
12847;DHT22;6492;48.128;8.320;2023-11-21T21:14:41;3.70;70.40
12847;DHT22;6492;48.128;8.320;2023-11-21T21:18:44;3.70;70.40
12847;DHT22;6492;48.128;8.320;2023-11-21T21:22:46;3.70;70.20
12847;DHT22;6492;48.128;8.320;2023-11-21T21:26:52;3.70;70.00
12847;DHT22;6492;48.128;8.320;2023-11-21T21:30:54;3.70;69.90
12847;DHT22;6492;48.128;8.320;2023-11-21T21:34:59;3.70;69.80
12847;DHT22;6492;48.128;8.320;2023-11-21T21:39:01;3.70;69.70
12847;DHT22;6492;48.128;8.320;2023-11-21T21:43:11;3.70;69.70
12847;DHT22;6492;48.128;8.320;2023-11-21T21:47:13;3.60;69.40
12847;DHT22;6492;48.128;8.320;2023-11-21T21:51:16;3.60;69.50
12847;DHT22;6492;48.128;8.320;2023-11-21T21:55:18;3.60;69.40
12847;DHT22;6492;48.128;8.320;2023-11-21T21:59:20;3.60;69.50
12847;DHT22;6492;48.128;8.320;2023-11-21T22:03:22;3.50;69.50
12847;DHT22;6492;48.128;8.320;2023-11-21T22:07:25;3.50;69.50
12847;DHT22;6492;48.128;8.320;2023-11-21T22:11:27;3.50;69.50
12847;DHT22;6492;48.128;8.320;2023-11-21T22:15:32;3.50;69.70
12847;DHT22;6492;48.128;8.320;2023-11-21T22:19:38;3.50;70.00
12847;DHT22;6492;48.128;8.320;2023-11-21T22:23:43;4.20;70.50
12847;DHT22;6492;48.128;8.320;2023-11-21T22:27:45;3.50;70.00
12847;DHT22;6492;48.128;8.320;2023-11-21T22:32:15;3.50;70.00
12847;DHT22;6492;48.128;8.320;2023-11-21T22:36:17;3.50;70.00
12847;DHT22;6492;48.128;8.320;2023-11-21T22:40:20;3.50;70.00
12847;DHT22;6492;48.128;8.320;2023-11-21T22:44:22;3.50;70.20
12847;DHT22;6492;48.128;8.320;2023-11-21T22:48:24;3.60;70.40
12847;DHT22;6492;48.128;8.320;2023-11-21T22:52:27;3.50;70.60
12847;DHT22;6492;48.128;8.320;2023-11-21T22:56:30;3.50;70.50
12847;DHT22;6492;48.128;8.320;2023-11-21T23:00:38;3.50;70.60
12847;DHT22;6492;48.128;8.320;2023-11-21T23:04:41;3.50;70.60
12847;DHT22;6492;48.128;8.320;2023-11-21T23:08:43;3.50;70.70
12847;DHT22;6492;48.128;8.320;2023-11-21T23:12:47;3.50;70.70
12847;DHT22;6492;48.128;8.320;2023-11-21T23:16:49;3.50;70.50
12847;DHT22;6492;48.128;8.320;2023-11-21T23:20:52;3.50;70.40
12847;DHT22;6492;48.128;8.320;2023-11-21T23:24:54;3.50;70.40
12847;DHT22;6492;48.128;8.320;2023-11-21T23:28:57;3.40;70.00
12847;DHT22;6492;48.128;8.320;2023-11-21T23:32:59;3.40;70.00
12847;DHT22;6492;48.128;8.320;2023-11-21T23:37:01;3.30;69.90
12847;DHT22;6492;48.128;8.320;2023-11-21T23:41:04;3.30;69.90
12847;DHT22;6492;48.128;8.320;2023-11-21T23:45:08;3.30;70.10
12847;DHT22;6492;48.128;8.320;2023-11-21T23:49:10;3.20;69.90
12847;DHT22;6492;48.128;8.320;2023-11-21T23:53:12;3.20;69.80
12847;DHT22;6492;48.128;8.320;2023-11-21T23:57:13;3.20;69.90
